sensor_id;sensor_type;location;lat;lon;timestamp;P1;durP1;ratioP1;P2;durP2;ratioP2
26014;SDS011;13793;55.388;37.844;2023-02-28T00:02:12;14.63;;;8.23;;
26014;SDS011;13793;55.388;37.844;2023-02-28T00:04:44;15.37;;;7.50;;
26014;SDS011;13793;55.388;37.844;2023-02-28T00:07:17;15.23;;;7.63;;
26014;SDS011;13793;55.388;37.844;2023-02-28T00:09:47;12.80;;;7.53;;
26014;SDS011;13793;55.388;37.844;2023-02-28T00:12:18;16.57;;;7.67;;
26014;SDS011;13793;55.388;37.844;2023-02-28T00:14:48;14.00;;;7.60;;
26014;SDS011;13793;55.388;37.844;2023-02-28T00:17:19;12.70;;;6.83;;
26014;SDS011;13793;55.388;37.844;2023-02-28T00:19:50;15.70;;;7.53;;
26014;SDS011;13793;55.388;37.844;2023-02-28T00:22:21;15.43;;;7.63;;
26014;SDS011;13793;55.388;37.844;2023-02-28T00:24:52;13.50;;;7.53;;
26014;SDS011;13793;55.388;37.844;2023-02-28T00:27:22;12.50;;;7.57;;
26014;SDS011;13793;55.388;37.844;2023-02-28T00:29:53;13.47;;;7.80;;
26014;SDS011;13793;55.388;37.844;2023-02-28T00:32:24;13.07;;;7.90;;
26014;SDS011;13793;55.388;37.844;2023-02-28T00:34:54;15.47;;;8.20;;
26014;SDS011;13793;55.388;37.844;2023-02-28T00:37:25;14.63;;;7.87;;
26014;SDS011;13793;55.388;37.844;2023-02-28T00:39:55;15.57;;;7.30;;
26014;SDS011;13793;55.388;37.844;2023-02-28T00:42:26;14.53;;;7.93;;
26014;SDS011;13793;55.388;37.844;2023-02-28T00:44:57;16.93;;;7.90;;
26014;SDS011;13793;55.388;37.844;2023-02-28T00:47:28;13.60;;;7.83;;
26014;SDS011;13793;55.388;37.844;2023-02-28T00:49:59;15.87;;;8.10;;
26014;SDS011;13793;55.388;37.844;2023-02-28T00:52:30;15.67;;;8.47;;
26014;SDS011;13793;55.388;37.844;2023-02-28T00:55:01;14.23;;;7.67;;
26014;SDS011;13793;55.388;37.844;2023-02-28T00:57:31;15.63;;;8.33;;
26014;SDS011;13793;55.388;37.844;2023-02-28T01:00:02;15.47;;;8.23;;
26014;SDS011;13793;55.388;37.844;2023-02-28T01:02:32;14.20;;;8.10;;
26014;SDS011;13793;55.388;37.844;2023-02-28T01:05:03;12.67;;;7.83;;
26014;SDS011;13793;55.388;37.844;2023-02-28T01:07:34;13.40;;;7.83;;
26014;SDS011;13793;55.388;37.844;2023-02-28T01:10:05;14.50;;;7.87;;
26014;SDS011;13793;55.388;37.844;2023-02-28T01:12:38;14.27;;;7.73;;
26014;SDS011;13793;55.388;37.844;2023-02-28T01:15:16;17.83;;;8.67;;
26014;SDS011;13793;55.388;37.844;2023-02-28T01:17:41;15.67;;;8.53;;
26014;SDS011;13793;55.388;37.844;2023-02-28T01:20:11;18.23;;;10.13;;
26014;SDS011;13793;55.388;37.844;2023-02-28T01:22:42;16.67;;;9.40;;
26014;SDS011;13793;55.388;37.844;2023-02-28T01:25:13;22.00;;;9.60;;
26014;SDS011;13793;55.388;37.844;2023-02-28T01:27:43;20.70;;;10.33;;
26014;SDS011;13793;55.388;37.844;2023-02-28T01:30:14;17.13;;;9.97;;
26014;SDS011;13793;55.388;37.844;2023-02-28T01:32:47;17.80;;;10.13;;
26014;SDS011;13793;55.388;37.844;2023-02-28T01:35:19;22.17;;;11.23;;
26014;SDS011;13793;55.388;37.844;2023-02-28T01:37:50;20.57;;;10.40;;
26014;SDS011;13793;55.388;37.844;2023-02-28T01:40:20;21.80;;;11.73;;
26014;SDS011;13793;55.388;37.844;2023-02-28T01:42:52;20.13;;;10.37;;
26014;SDS011;13793;55.388;37.844;2023-02-28T01:45:27;19.00;;;10.57;;
26014;SDS011;13793;55.388;37.844;2023-02-28T01:48:05;19.07;;;10.07;;
26014;SDS011;13793;55.388;37.844;2023-02-28T01:50:38;20.57;;;10.70;;
26014;SDS011;13793;55.388;37.844;2023-02-28T01:53:10;19.50;;;10.43;;
26014;SDS011;13793;55.388;37.844;2023-02-28T01:55:42;18.33;;;10.20;;
26014;SDS011;13793;55.388;37.844;2023-02-28T01:58:15;19.17;;;9.80;;
26014;SDS011;13793;55.388;37.844;2023-02-28T02:00:48;21.10;;;10.17;;
26014;SDS011;13793;55.388;37.844;2023-02-28T02:03:18;17.10;;;9.47;;
26014;SDS011;13793;55.388;37.844;2023-02-28T02:05:50;17.83;;;9.77;;
26014;SDS011;13793;55.388;37.844;2023-02-28T02:08:22;17.90;;;9.23;;
26014;SDS011;13793;55.388;37.844;2023-02-28T02:10:57;16.83;;;9.03;;
26014;SDS011;13793;55.388;37.844;2023-02-28T02:19:34;19.67;;;9.37;;
26014;SDS011;13793;55.388;37.844;2023-02-28T02:27:53;15.03;;;8.07;;
26014;SDS011;13793;55.388;37.844;2023-02-28T02:30:40;16.25;;;9.10;;
26014;SDS011;13793;55.388;37.844;2023-02-28T02:33:19;18.03;;;9.00;;
26014;SDS011;13793;55.388;37.844;2023-02-28T02:36:05;16.93;;;9.00;;
26014;SDS011;13793;55.388;37.844;2023-02-28T02:41:34;18.20;;;9.57;;
26014;SDS011;13793;55.388;37.844;2023-02-28T02:46:51;16.43;;;8.87;;
26014;SDS011;13793;55.388;37.844;2023-02-28T02:49:28;15.20;;;8.37;;
26014;SDS011;13793;55.388;37.844;2023-02-28T02:52:07;17.70;;;8.97;;
26014;SDS011;13793;55.388;37.844;2023-02-28T02:54:41;16.50;;;8.63;;
26014;SDS011;13793;55.388;37.844;2023-02-28T02:57:20;17.12;;;7.85;;
26014;SDS011;13793;55.388;37.844;2023-02-28T02:59:45;13.50;;;7.30;;
26014;SDS011;13793;55.388;37.844;2023-02-28T03:02:17;14.77;;;8.20;;
26014;SDS011;13793;55.388;37.844;2023-02-28T03:04:51;13.97;;;8.10;;
26014;SDS011;13793;55.388;37.844;2023-02-28T03:07:22;15.50;;;7.73;;
26014;SDS011;13793;55.388;37.844;2023-02-28T03:09:53;15.27;;;8.50;;
26014;SDS011;13793;55.388;37.844;2023-02-28T03:12:40;14.87;;;7.70;;
26014;SDS011;13793;55.388;37.844;2023-02-28T03:15:19;13.67;;;7.63;;
26014;SDS011;13793;55.388;37.844;2023-02-28T03:26:41;12.50;;;7.10;;
26014;SDS011;13793;55.388;37.844;2023-02-28T03:28:34;14.37;;;7.53;;
26014;SDS011;13793;55.388;37.844;2023-02-28T03:31:30;16.47;;;8.00;;
26014;SDS011;13793;55.388;37.844;2023-02-28T03:36:50;13.40;;;7.73;;
26014;SDS011;13793;55.388;37.844;2023-02-28T03:39:36;15.50;;;7.47;;
26014;SDS011;13793;55.388;37.844;2023-02-28T03:42:17;12.80;;;7.23;;
26014;SDS011;13793;55.388;37.844;2023-02-28T03:44:57;13.90;;;7.87;;
26014;SDS011;13793;55.388;37.844;2023-02-28T03:47:33;14.47;;;7.53;;
26014;SDS011;13793;55.388;37.844;2023-02-28T03:50:09;15.08;;;8.05;;
26014;SDS011;13793;55.388;37.844;2023-02-28T03:52:48;16.07;;;8.40;;
26014;SDS011;13793;55.388;37.844;2023-02-28T03:55:18;15.83;;;7.80;;
26014;SDS011;13793;55.388;37.844;2023-02-28T04:00:45;14.07;;;7.40;;
26014;SDS011;13793;55.388;37.844;2023-02-28T04:03:19;15.10;;;7.90;;
26014;SDS011;13793;55.388;37.844;2023-02-28T04:05:53;14.50;;;7.40;;
26014;SDS011;13793;55.388;37.844;2023-02-28T04:08:24;13.03;;;7.33;;
26014;SDS011;13793;55.388;37.844;2023-02-28T04:11:00;16.83;;;7.97;;
26014;SDS011;13793;55.388;37.844;2023-02-28T04:13:34;13.93;;;7.20;;
26014;SDS011;13793;55.388;37.844;2023-02-28T04:16:07;15.33;;;7.83;;
26014;SDS011;13793;55.388;37.844;2023-02-28T04:18:42;15.50;;;7.95;;
26014;SDS011;13793;55.388;37.844;2023-02-28T04:21:12;13.47;;;7.50;;
26014;SDS011;13793;55.388;37.844;2023-02-28T04:23:43;14.07;;;7.43;;
26014;SDS011;13793;55.388;37.844;2023-02-28T04:26:13;14.63;;;8.33;;
26014;SDS011;13793;55.388;37.844;2023-02-28T04:28:44;15.17;;;7.77;;
26014;SDS011;13793;55.388;37.844;2023-02-28T04:31:14;13.80;;;7.90;;
26014;SDS011;13793;55.388;37.844;2023-02-28T04:33:45;15.83;;;8.60;;
26014;SDS011;13793;55.388;37.844;2023-02-28T04:36:16;14.03;;;7.57;;
26014;SDS011;13793;55.388;37.844;2023-02-28T04:38:47;15.17;;;7.90;;
26014;SDS011;13793;55.388;37.844;2023-02-28T04:41:18;17.73;;;8.50;;
26014;SDS011;13793;55.388;37.844;2023-02-28T04:43:48;14.97;;;8.27;;
26014;SDS011;13793;55.388;37.844;2023-02-28T04:46:21;16.17;;;7.83;;
26014;SDS011;13793;55.388;37.844;2023-02-28T04:48:52;18.30;;;8.77;;
26014;SDS011;13793;55.388;37.844;2023-02-28T04:51:22;17.57;;;9.17;;
26014;SDS011;13793;55.388;37.844;2023-02-28T04:53:53;13.87;;;7.70;;
26014;SDS011;13793;55.388;37.844;2023-02-28T04:56:24;16.73;;;8.23;;
26014;SDS011;13793;55.388;37.844;2023-02-28T04:58:54;15.87;;;8.17;;
26014;SDS011;13793;55.388;37.844;2023-02-28T05:01:28;14.53;;;7.60;;
26014;SDS011;13793;55.388;37.844;2023-02-28T05:04:01;12.23;;;7.07;;
26014;SDS011;13793;55.388;37.844;2023-02-28T05:06:33;12.10;;;7.10;;
26014;SDS011;13793;55.388;37.844;2023-02-28T05:09:03;13.37;;;7.10;;
26014;SDS011;13793;55.388;37.844;2023-02-28T05:11:34;11.90;;;6.50;;
26014;SDS011;13793;55.388;37.844;2023-02-28T05:14:06;18.80;;;6.83;;
26014;SDS011;13793;55.388;37.844;2023-02-28T05:16:41;10.00;;;6.63;;
26014;SDS011;13793;55.388;37.844;2023-02-28T05:19:11;11.00;;;6.37;;
26014;SDS011;13793;55.388;37.844;2023-02-28T05:21:54;10.67;;;6.20;;
26014;SDS011;13793;55.388;37.844;2023-02-28T05:24:22;11.30;;;6.23;;
26014;SDS011;13793;55.388;37.844;2023-02-28T05:26:53;11.73;;;6.40;;
26014;SDS011;13793;55.388;37.844;2023-02-28T05:29:24;11.87;;;6.30;;
26014;SDS011;13793;55.388;37.844;2023-02-28T05:31:54;11.87;;;6.70;;
26014;SDS011;13793;55.388;37.844;2023-02-28T05:34:25;10.27;;;6.10;;
26014;SDS011;13793;55.388;37.844;2023-02-28T05:36:56;11.03;;;6.20;;
26014;SDS011;13793;55.388;37.844;2023-02-28T05:39:30;10.97;;;5.70;;
26014;SDS011;13793;55.388;37.844;2023-02-28T05:42:00;11.43;;;6.07;;
26014;SDS011;13793;55.388;37.844;2023-02-28T05:44:31;11.13;;;6.30;;
26014;SDS011;13793;55.388;37.844;2023-02-28T05:47:02;10.47;;;6.17;;
26014;SDS011;13793;55.388;37.844;2023-02-28T05:49:32;10.93;;;5.87;;
26014;SDS011;13793;55.388;37.844;2023-02-28T05:52:03;8.97;;;5.10;;
26014;SDS011;13793;55.388;37.844;2023-02-28T05:54:34;10.20;;;6.10;;
26014;SDS011;13793;55.388;37.844;2023-02-28T05:57:05;9.37;;;6.13;;
26014;SDS011;13793;55.388;37.844;2023-02-28T05:59:35;10.47;;;5.80;;
26014;SDS011;13793;55.388;37.844;2023-02-28T06:02:10;8.93;;;5.43;;
26014;SDS011;13793;55.388;37.844;2023-02-28T06:04:43;8.90;;;5.43;;
26014;SDS011;13793;55.388;37.844;2023-02-28T06:07:14;8.50;;;5.20;;
26014;SDS011;13793;55.388;37.844;2023-02-28T06:09:46;10.67;;;5.77;;
26014;SDS011;13793;55.388;37.844;2023-02-28T06:12:16;9.73;;;5.10;;
26014;SDS011;13793;55.388;37.844;2023-02-28T06:14:47;9.20;;;5.83;;
26014;SDS011;13793;55.388;37.844;2023-02-28T06:17:17;7.40;;;4.67;;
26014;SDS011;13793;55.388;37.844;2023-02-28T06:19:51;7.93;;;5.27;;
26014;SDS011;13793;55.388;37.844;2023-02-28T06:22:24;6.20;;;4.20;;
26014;SDS011;13793;55.388;37.844;2023-02-28T06:24:55;8.40;;;5.03;;
26014;SDS011;13793;55.388;37.844;2023-02-28T06:27:26;8.03;;;5.10;;
26014;SDS011;13793;55.388;37.844;2023-02-28T06:29:57;8.77;;;5.07;;
26014;SDS011;13793;55.388;37.844;2023-02-28T06:32:28;7.93;;;5.33;;
26014;SDS011;13793;55.388;37.844;2023-02-28T06:34:59;6.63;;;4.77;;
26014;SDS011;13793;55.388;37.844;2023-02-28T06:37:32;7.93;;;4.80;;
26014;SDS011;13793;55.388;37.844;2023-02-28T06:40:03;6.53;;;4.43;;
26014;SDS011;13793;55.388;37.844;2023-02-28T06:42:35;6.60;;;4.40;;
26014;SDS011;13793;55.388;37.844;2023-02-28T06:45:06;8.57;;;4.67;;
26014;SDS011;13793;55.388;37.844;2023-02-28T06:47:37;6.87;;;4.97;;
26014;SDS011;13793;55.388;37.844;2023-02-28T06:50:10;8.53;;;5.20;;
26014;SDS011;13793;55.388;37.844;2023-02-28T06:52:41;7.60;;;4.90;;
26014;SDS011;13793;55.388;37.844;2023-02-28T06:55:12;7.57;;;4.93;;
26014;SDS011;13793;55.388;37.844;2023-02-28T06:57:42;7.87;;;4.87;;
26014;SDS011;13793;55.388;37.844;2023-02-28T07:00:13;7.83;;;5.03;;
26014;SDS011;13793;55.388;37.844;2023-02-28T07:02:44;8.57;;;5.17;;
26014;SDS011;13793;55.388;37.844;2023-02-28T07:05:15;7.27;;;4.57;;
26014;SDS011;13793;55.388;37.844;2023-02-28T07:07:46;7.57;;;4.87;;
26014;SDS011;13793;55.388;37.844;2023-02-28T07:10:17;7.17;;;4.43;;
26014;SDS011;13793;55.388;37.844;2023-02-28T07:12:48;8.13;;;5.23;;
26014;SDS011;13793;55.388;37.844;2023-02-28T07:15:19;10.37;;;5.37;;
26014;SDS011;13793;55.388;37.844;2023-02-28T07:17:50;8.30;;;5.20;;
26014;SDS011;13793;55.388;37.844;2023-02-28T07:20:20;9.63;;;5.37;;
26014;SDS011;13793;55.388;37.844;2023-02-28T07:22:51;10.23;;;5.33;;
26014;SDS011;13793;55.388;37.844;2023-02-28T07:25:28;8.35;;;5.30;;
26014;SDS011;13793;55.388;37.844;2023-02-28T07:27:58;10.87;;;5.57;;
26014;SDS011;13793;55.388;37.844;2023-02-28T07:30:29;10.33;;;5.70;;
26014;SDS011;13793;55.388;37.844;2023-02-28T07:33:00;9.97;;;6.10;;
26014;SDS011;13793;55.388;37.844;2023-02-28T07:35:30;10.20;;;6.13;;
26014;SDS011;13793;55.388;37.844;2023-02-28T07:38:01;11.50;;;6.00;;
26014;SDS011;13793;55.388;37.844;2023-02-28T07:40:32;9.53;;;5.70;;
26014;SDS011;13793;55.388;37.844;2023-02-28T07:43:03;9.13;;;5.80;;
26014;SDS011;13793;55.388;37.844;2023-02-28T07:45:33;12.47;;;6.07;;
26014;SDS011;13793;55.388;37.844;2023-02-28T07:48:04;12.93;;;7.50;;
26014;SDS011;13793;55.388;37.844;2023-02-28T07:50:35;9.53;;;6.27;;
26014;SDS011;13793;55.388;37.844;2023-02-28T07:53:06;16.03;;;7.97;;
26014;SDS011;13793;55.388;37.844;2023-02-28T07:55:36;11.10;;;6.70;;
26014;SDS011;13793;55.388;37.844;2023-02-28T07:58:07;15.37;;;7.80;;
26014;SDS011;13793;55.388;37.844;2023-02-28T08:00:37;17.13;;;7.97;;
26014;SDS011;13793;55.388;37.844;2023-02-28T08:03:17;14.20;;;7.03;;
26014;SDS011;13793;55.388;37.844;2023-02-28T08:05:47;17.80;;;6.97;;
26014;SDS011;13793;55.388;37.844;2023-02-28T08:08:18;14.77;;;7.13;;
26014;SDS011;13793;55.388;37.844;2023-02-28T08:10:49;17.23;;;7.33;;
26014;SDS011;13793;55.388;37.844;2023-02-28T08:13:22;16.07;;;7.50;;
26014;SDS011;13793;55.388;37.844;2023-02-28T08:15:53;11.80;;;5.77;;
26014;SDS011;13793;55.388;37.844;2023-02-28T08:18:24;11.73;;;6.00;;
26014;SDS011;13793;55.388;37.844;2023-02-28T08:20:55;9.30;;;5.07;;
26014;SDS011;13793;55.388;37.844;2023-02-28T08:23:26;14.03;;;6.77;;
26014;SDS011;13793;55.388;37.844;2023-02-28T08:25:56;16.43;;;7.50;;
26014;SDS011;13793;55.388;37.844;2023-02-28T08:28:27;14.30;;;6.87;;
26014;SDS011;13793;55.388;37.844;2023-02-28T08:30:58;8.90;;;5.33;;
26014;SDS011;13793;55.388;37.844;2023-02-28T08:33:28;10.40;;;5.30;;
26014;SDS011;13793;55.388;37.844;2023-02-28T08:36:00;12.47;;;6.87;;
26014;SDS011;13793;55.388;37.844;2023-02-28T08:38:30;10.03;;;6.23;;
26014;SDS011;13793;55.388;37.844;2023-02-28T08:41:07;10.37;;;5.63;;
26014;SDS011;13793;55.388;37.844;2023-02-28T08:43:35;9.27;;;5.03;;
26014;SDS011;13793;55.388;37.844;2023-02-28T08:46:06;8.50;;;5.13;;
26014;SDS011;13793;55.388;37.844;2023-02-28T08:48:37;11.53;;;6.10;;
26014;SDS011;13793;55.388;37.844;2023-02-28T08:51:09;11.23;;;5.60;;
26014;SDS011;13793;55.388;37.844;2023-02-28T08:53:41;11.37;;;5.10;;
26014;SDS011;13793;55.388;37.844;2023-02-28T08:56:12;8.50;;;4.97;;
26014;SDS011;13793;55.388;37.844;2023-02-28T08:58:45;8.63;;;4.90;;
26014;SDS011;13793;55.388;37.844;2023-02-28T09:01:17;10.03;;;5.10;;
26014;SDS011;13793;55.388;37.844;2023-02-28T09:03:51;11.27;;;5.10;;
26014;SDS011;13793;55.388;37.844;2023-02-28T09:06:23;7.97;;;4.70;;
26014;SDS011;13793;55.388;37.844;2023-02-28T09:08:58;9.13;;;5.03;;
26014;SDS011;13793;55.388;37.844;2023-02-28T09:11:31;9.13;;;5.13;;
26014;SDS011;13793;55.388;37.844;2023-02-28T09:14:03;10.13;;;4.90;;
26014;SDS011;13793;55.388;37.844;2023-02-28T09:16:34;7.77;;;4.53;;
26014;SDS011;13793;55.388;37.844;2023-02-28T09:19:04;9.43;;;4.47;;
26014;SDS011;13793;55.388;37.844;2023-02-28T09:21:35;9.80;;;5.60;;
26014;SDS011;13793;55.388;37.844;2023-02-28T09:24:06;14.17;;;6.17;;
26014;SDS011;13793;55.388;37.844;2023-02-28T09:26:37;10.40;;;5.17;;
26014;SDS011;13793;55.388;37.844;2023-02-28T09:29:08;6.80;;;4.33;;
26014;SDS011;13793;55.388;37.844;2023-02-28T09:31:39;9.90;;;5.17;;
26014;SDS011;13793;55.388;37.844;2023-02-28T09:34:10;15.40;;;6.10;;
26014;SDS011;13793;55.388;37.844;2023-02-28T09:36:40;14.97;;;5.67;;
26014;SDS011;13793;55.388;37.844;2023-02-28T09:39:11;16.97;;;6.50;;
26014;SDS011;13793;55.388;37.844;2023-02-28T09:41:44;12.50;;;5.70;;
26014;SDS011;13793;55.388;37.844;2023-02-28T09:44:24;8.37;;;5.10;;
26014;SDS011;13793;55.388;37.844;2023-02-28T09:50:50;11.43;;;4.90;;
26014;SDS011;13793;55.388;37.844;2023-02-28T09:52:43;14.10;;;5.67;;
26014;SDS011;13793;55.388;37.844;2023-02-28T09:58:16;14.00;;;6.33;;
26014;SDS011;13793;55.388;37.844;2023-02-28T10:01:00;11.73;;;5.93;;
26014;SDS011;13793;55.388;37.844;2023-02-28T10:03:55;12.30;;;5.87;;
26014;SDS011;13793;55.388;37.844;2023-02-28T10:06:28;8.93;;;4.77;;
26014;SDS011;13793;55.388;37.844;2023-02-28T10:09:03;9.63;;;5.47;;
26014;SDS011;13793;55.388;37.844;2023-02-28T10:11:49;8.53;;;4.20;;
26014;SDS011;13793;55.388;37.844;2023-02-28T10:14:21;8.30;;;4.23;;
26014;SDS011;13793;55.388;37.844;2023-02-28T10:16:56;8.50;;;4.90;;
26014;SDS011;13793;55.388;37.844;2023-02-28T10:19:33;10.47;;;5.13;;
26014;SDS011;13793;55.388;37.844;2023-02-28T10:22:19;9.77;;;4.77;;
26014;SDS011;13793;55.388;37.844;2023-02-28T10:25:00;10.27;;;5.07;;
26014;SDS011;13793;55.388;37.844;2023-02-28T10:27:31;7.80;;;4.53;;
26014;SDS011;13793;55.388;37.844;2023-02-28T10:30:02;6.40;;;3.97;;
26014;SDS011;13793;55.388;37.844;2023-02-28T10:32:35;6.70;;;4.33;;
26014;SDS011;13793;55.388;37.844;2023-02-28T10:35:14;8.37;;;4.70;;
26014;SDS011;13793;55.388;37.844;2023-02-28T10:37:55;7.27;;;4.23;;
26014;SDS011;13793;55.388;37.844;2023-02-28T10:40:30;7.53;;;4.70;;
26014;SDS011;13793;55.388;37.844;2023-02-28T10:43:04;7.07;;;4.20;;
26014;SDS011;13793;55.388;37.844;2023-02-28T10:45:38;10.27;;;4.67;;
26014;SDS011;13793;55.388;37.844;2023-02-28T11:07:04;9.70;;;4.90;;
26014;SDS011;13793;55.388;37.844;2023-02-28T11:09:40;9.68;;;4.47;;
26014;SDS011;13793;55.388;37.844;2023-02-28T11:15:02;11.30;;;5.67;;
26014;SDS011;13793;55.388;37.844;2023-02-28T11:17:37;10.85;;;5.50;;
26014;SDS011;13793;55.388;37.844;2023-02-28T11:20:14;11.10;;;5.60;;
26014;SDS011;13793;55.388;37.844;2023-02-28T11:22:43;9.77;;;5.93;;
26014;SDS011;13793;55.388;37.844;2023-02-28T11:25:59;10.63;;;6.13;;
26014;SDS011;13793;55.388;37.844;2023-02-28T11:27:57;10.93;;;6.77;;
26014;SDS011;13793;55.388;37.844;2023-02-28T11:30:37;12.03;;;6.63;;
26014;SDS011;13793;55.388;37.844;2023-02-28T11:33:22;10.10;;;6.30;;
26014;SDS011;13793;55.388;37.844;2023-02-28T11:36:01;13.73;;;5.80;;
26014;SDS011;13793;55.388;37.844;2023-02-28T11:38:34;10.87;;;6.10;;
26014;SDS011;13793;55.388;37.844;2023-02-28T11:41:07;11.20;;;6.60;;
26014;SDS011;13793;55.388;37.844;2023-02-28T11:43:53;10.73;;;6.00;;
26014;SDS011;13793;55.388;37.844;2023-02-28T11:46:52;11.50;;;6.23;;
26014;SDS011;13793;55.388;37.844;2023-02-28T11:49:40;10.23;;;5.60;;
26014;SDS011;13793;55.388;37.844;2023-02-28T11:55:00;8.20;;;5.17;;
26014;SDS011;13793;55.388;37.844;2023-02-28T12:06:37;7.85;;;4.92;;
26014;SDS011;13793;55.388;37.844;2023-02-28T12:09:28;8.43;;;5.00;;
26014;SDS011;13793;55.388;37.844;2023-02-28T12:11:59;8.80;;;5.13;;
26014;SDS011;13793;55.388;37.844;2023-02-28T12:20:05;9.17;;;5.70;;
26014;SDS011;13793;55.388;37.844;2023-02-28T12:22:50;8.63;;;4.53;;
26014;SDS011;13793;55.388;37.844;2023-02-28T12:28:25;7.60;;;4.90;;
26014;SDS011;13793;55.388;37.844;2023-02-28T12:30:54;7.17;;;4.80;;
26014;SDS011;13793;55.388;37.844;2023-02-28T12:33:29;10.40;;;5.10;;
26014;SDS011;13793;55.388;37.844;2023-02-28T12:36:03;8.80;;;5.43;;
26014;SDS011;13793;55.388;37.844;2023-02-28T12:38:36;9.90;;;5.47;;
26014;SDS011;13793;55.388;37.844;2023-02-28T12:41:22;9.40;;;5.40;;
26014;SDS011;13793;55.388;37.844;2023-02-28T12:44:12;7.77;;;5.00;;
26014;SDS011;13793;55.388;37.844;2023-02-28T12:47:02;6.97;;;4.70;;
26014;SDS011;13793;55.388;37.844;2023-02-28T12:49:36;8.43;;;4.57;;
26014;SDS011;13793;55.388;37.844;2023-02-28T12:52:18;9.40;;;5.37;;
26014;SDS011;13793;55.388;37.844;2023-02-28T12:54:52;9.27;;;5.27;;
26014;SDS011;13793;55.388;37.844;2023-02-28T13:00:12;8.77;;;5.33;;
26014;SDS011;13793;55.388;37.844;2023-02-28T13:05:25;8.90;;;5.10;;
26014;SDS011;13793;55.388;37.844;2023-02-28T13:08:19;7.77;;;4.60;;
26014;SDS011;13793;55.388;37.844;2023-02-28T13:10:52;7.37;;;4.87;;
26014;SDS011;13793;55.388;37.844;2023-02-28T13:13:24;9.97;;;5.40;;
26014;SDS011;13793;55.388;37.844;2023-02-28T13:15:59;8.33;;;5.10;;
26014;SDS011;13793;55.388;37.844;2023-02-28T13:18:35;8.90;;;4.87;;
26014;SDS011;13793;55.388;37.844;2023-02-28T13:21:24;9.00;;;4.90;;
26014;SDS011;13793;55.388;37.844;2023-02-28T13:24:03;7.67;;;4.83;;
26014;SDS011;13793;55.388;37.844;2023-02-28T13:34:46;6.03;;;4.40;;
26014;SDS011;13793;55.388;37.844;2023-02-28T13:42:33;9.50;;;5.20;;
26014;SDS011;13793;55.388;37.844;2023-02-28T13:48:02;6.37;;;4.05;;
26014;SDS011;13793;55.388;37.844;2023-02-28T13:50:37;10.17;;;5.30;;
26014;SDS011;13793;55.388;37.844;2023-02-28T13:58:53;8.13;;;4.83;;
26014;SDS011;13793;55.388;37.844;2023-02-28T14:06:51;8.83;;;5.07;;
26014;SDS011;13793;55.388;37.844;2023-02-28T14:11:57;9.93;;;5.97;;
26014;SDS011;13793;55.388;37.844;2023-02-28T14:17:20;7.40;;;4.80;;
26014;SDS011;13793;55.388;37.844;2023-02-28T14:19:45;8.60;;;4.70;;
26014;SDS011;13793;55.388;37.844;2023-02-28T14:25:15;8.17;;;4.93;;
26014;SDS011;13793;55.388;37.844;2023-02-28T14:27:54;8.60;;;4.73;;
26014;SDS011;13793;55.388;37.844;2023-02-28T14:33:19;7.50;;;4.50;;
26014;SDS011;13793;55.388;37.844;2023-02-28T14:36:02;8.70;;;4.67;;
26014;SDS011;13793;55.388;37.844;2023-02-28T14:41:24;8.17;;;5.00;;
26014;SDS011;13793;55.388;37.844;2023-02-28T14:44:27;8.57;;;5.03;;
26014;SDS011;13793;55.388;37.844;2023-02-28T14:46:55;7.23;;;4.40;;
26014;SDS011;13793;55.388;37.844;2023-02-28T14:49:37;9.13;;;4.40;;
26014;SDS011;13793;55.388;37.844;2023-02-28T14:55:03;7.53;;;4.57;;
26014;SDS011;13793;55.388;37.844;2023-02-28T14:57:39;7.27;;;4.30;;
26014;SDS011;13793;55.388;37.844;2023-02-28T15:02:59;7.37;;;4.70;;
26014;SDS011;13793;55.388;37.844;2023-02-28T15:05:31;8.97;;;4.83;;
26014;SDS011;13793;55.388;37.844;2023-02-28T15:08:13;6.23;;;4.23;;
26014;SDS011;13793;55.388;37.844;2023-02-28T15:10:49;7.10;;;4.73;;
26014;SDS011;13793;55.388;37.844;2023-02-28T15:13:26;6.80;;;4.53;;
26014;SDS011;13793;55.388;37.844;2023-02-28T15:16:13;7.47;;;5.20;;
26014;SDS011;13793;55.388;37.844;2023-02-28T15:21:36;7.00;;;4.80;;
26014;SDS011;13793;55.388;37.844;2023-02-28T15:24:07;7.43;;;4.90;;
26014;SDS011;13793;55.388;37.844;2023-02-28T15:26:45;6.57;;;4.47;;
26014;SDS011;13793;55.388;37.844;2023-02-28T15:29:20;8.13;;;5.30;;
26014;SDS011;13793;55.388;37.844;2023-02-28T15:31:56;8.30;;;4.63;;
26014;SDS011;13793;55.388;37.844;2023-02-28T15:34:36;8.73;;;4.90;;
26014;SDS011;13793;55.388;37.844;2023-02-28T15:40:28;8.00;;;4.83;;
26014;SDS011;13793;55.388;37.844;2023-02-28T15:45:40;8.63;;;5.20;;
26014;SDS011;13793;55.388;37.844;2023-02-28T15:48:22;7.80;;;5.10;;
26014;SDS011;13793;55.388;37.844;2023-02-28T15:51:01;8.78;;;4.90;;
26014;SDS011;13793;55.388;37.844;2023-02-28T15:54:01;8.27;;;5.00;;
26014;SDS011;13793;55.388;37.844;2023-02-28T15:56:26;7.53;;;5.40;;
26014;SDS011;13793;55.388;37.844;2023-02-28T15:59:02;6.27;;;4.53;;
26014;SDS011;13793;55.388;37.844;2023-02-28T16:01:35;7.50;;;5.07;;
26014;SDS011;13793;55.388;37.844;2023-02-28T16:04:13;8.87;;;5.00;;
26014;SDS011;13793;55.388;37.844;2023-02-28T16:06:53;7.42;;;4.53;;
26014;SDS011;13793;55.388;37.844;2023-02-28T16:09:17;6.77;;;4.43;;
26014;SDS011;13793;55.388;37.844;2023-02-28T16:11:48;6.40;;;4.63;;
26014;SDS011;13793;55.388;37.844;2023-02-28T16:14:24;7.00;;;4.80;;
26014;SDS011;13793;55.388;37.844;2023-02-28T16:17:03;7.70;;;5.00;;
26014;SDS011;13793;55.388;37.844;2023-02-28T16:19:34;7.40;;;4.80;;
26014;SDS011;13793;55.388;37.844;2023-02-28T16:22:05;7.83;;;4.93;;
26014;SDS011;13793;55.388;37.844;2023-02-28T16:24:38;7.73;;;4.97;;
26014;SDS011;13793;55.388;37.844;2023-02-28T16:27:16;6.90;;;4.80;;
26014;SDS011;13793;55.388;37.844;2023-02-28T16:29:50;8.97;;;5.03;;
26014;SDS011;13793;55.388;37.844;2023-02-28T16:32:21;6.90;;;5.33;;
26014;SDS011;13793;55.388;37.844;2023-02-28T16:34:51;7.90;;;4.77;;
26014;SDS011;13793;55.388;37.844;2023-02-28T16:37:22;6.23;;;4.73;;
26014;SDS011;13793;55.388;37.844;2023-02-28T16:39:53;8.00;;;4.70;;
26014;SDS011;13793;55.388;37.844;2023-02-28T16:42:25;6.57;;;4.30;;
26014;SDS011;13793;55.388;37.844;2023-02-28T16:44:56;8.00;;;5.57;;
26014;SDS011;13793;55.388;37.844;2023-02-28T16:47:28;8.17;;;5.00;;
26014;SDS011;13793;55.388;37.844;2023-02-28T16:50:01;6.70;;;4.70;;
26014;SDS011;13793;55.388;37.844;2023-02-28T16:52:33;8.67;;;4.67;;
26014;SDS011;13793;55.388;37.844;2023-02-28T16:55:03;7.47;;;4.80;;
26014;SDS011;13793;55.388;37.844;2023-02-28T16:57:35;9.13;;;4.97;;
26014;SDS011;13793;55.388;37.844;2023-02-28T17:00:06;7.47;;;5.13;;
26014;SDS011;13793;55.388;37.844;2023-02-28T17:02:39;7.93;;;5.13;;
26014;SDS011;13793;55.388;37.844;2023-02-28T17:05:17;8.67;;;5.10;;
26014;SDS011;13793;55.388;37.844;2023-02-28T17:07:43;7.07;;;4.70;;
26014;SDS011;13793;55.388;37.844;2023-02-28T17:10:26;8.80;;;5.00;;
26014;SDS011;13793;55.388;37.844;2023-02-28T17:12:54;8.73;;;4.90;;
26014;SDS011;13793;55.388;37.844;2023-02-28T17:15:25;7.47;;;4.63;;
26014;SDS011;13793;55.388;37.844;2023-02-28T17:17:55;6.90;;;4.50;;
26014;SDS011;13793;55.388;37.844;2023-02-28T17:20:26;9.43;;;4.53;;
26014;SDS011;13793;55.388;37.844;2023-02-28T17:22:56;7.83;;;4.47;;
26014;SDS011;13793;55.388;37.844;2023-02-28T17:25:27;12.60;;;6.13;;